createdAt,value
2019-02-27T00:00:00.636Z,72.50
2019-02-27T00:01:31.627Z,72.30
2019-02-27T00:02:57.319Z,72.20
2019-02-27T00:04:22.698Z,72.10
2019-02-27T00:05:48.412Z,72.00
2019-02-27T00:07:13.802Z,72.00
2019-02-27T00:08:39.204Z,72.40
2019-02-27T00:10:06.175Z,72.50
2019-02-27T00:11:32.160Z,72.90
2019-02-27T00:12:57.621Z,73.10
2019-02-27T00:14:23.039Z,73.50
2019-02-27T00:15:48.499Z,73.80
2019-02-27T00:17:15.095Z,73.80
2019-02-27T00:18:41.047Z,73.90
2019-02-27T00:20:06.949Z,74.00
2019-02-27T00:21:32.443Z,73.80
2019-02-27T00:22:57.870Z,73.60
2019-02-27T00:24:23.346Z,73.30
2019-02-27T00:25:48.811Z,73.20
2019-02-27T00:27:14.743Z,73.30
2019-02-27T00:28:40.687Z,73.40
2019-02-27T00:30:06.584Z,73.40
2019-02-27T00:31:32.069Z,73.40
2019-02-27T00:32:57.566Z,73.40
2019-02-27T00:34:22.949Z,73.30
2019-02-27T00:35:48.419Z,73.30
2019-02-27T00:37:13.853Z,73.80
2019-02-27T00:38:39.273Z,72.90
2019-02-27T00:40:05.610Z,72.60
2019-02-27T00:41:31.640Z,72.50
2019-02-27T00:42:57.088Z,72.60
2019-02-27T00:44:22.498Z,72.30
2019-02-27T00:45:47.920Z,72.20
2019-02-27T00:47:13.385Z,72.10
2019-02-27T00:48:38.803Z,71.90
2019-02-27T00:50:06.597Z,71.80
2019-02-27T00:51:31.487Z,71.70
2019-02-27T00:52:56.970Z,71.70
2019-02-27T00:54:22.402Z,71.70
2019-02-27T00:55:47.804Z,71.60
2019-02-27T00:57:15.115Z,71.40
2019-02-27T00:58:40.315Z,71.10
2019-02-27T01:00:07.636Z,71.30
2019-02-27T01:01:33.089Z,71.20
2019-02-27T01:02:58.638Z,71.00
2019-02-27T01:04:24.098Z,70.80
2019-02-27T01:05:49.546Z,70.60
2019-02-27T01:07:20.277Z,70.30
2019-02-27T01:08:43.769Z,70.00
2019-02-27T01:10:11.991Z,69.60
2019-02-27T01:11:36.866Z,69.10
2019-02-27T01:13:02.365Z,68.60
2019-02-27T01:14:27.827Z,68.10
2019-02-27T01:15:53.293Z,68.20
2019-02-27T01:17:20.939Z,68.00
2019-02-27T01:18:45.798Z,67.50
2019-02-27T01:20:12.040Z,67.00
2019-02-27T01:21:37.530Z,66.70
2019-02-27T01:23:02.997Z,66.20
2019-02-27T01:24:28.456Z,66.00
2019-02-27T01:25:56.126Z,65.40
2019-02-27T01:27:20.940Z,65.20
2019-02-27T01:28:46.347Z,64.40
2019-02-27T01:30:13.016Z,64.40
2019-02-27T01:31:38.494Z,64.40
2019-02-27T01:33:04.787Z,64.20
2019-02-27T01:34:30.367Z,64.30
2019-02-27T01:35:55.807Z,64.10
2019-02-27T01:37:21.408Z,63.50
2019-02-27T01:38:47.008Z,63.30
2019-02-27T01:40:17.149Z,63.30
2019-02-27T01:41:40.566Z,63.00
2019-02-27T01:43:06.511Z,62.60
2019-02-27T01:44:32.019Z,62.70
2019-02-27T01:45:57.397Z,62.70
2019-02-27T01:47:24.345Z,62.20
2019-02-27T01:48:49.799Z,62.10
2019-02-27T01:50:34.924Z,61.90
2019-02-27T01:52:02.061Z,61.40
2019-02-27T01:53:27.732Z,61.20
2019-02-27T01:54:53.237Z,61.20
2019-02-27T01:56:18.678Z,60.90
2019-02-27T01:57:44.114Z,60.10
2019-02-27T01:59:09.558Z,59.70
2019-02-27T02:00:35.248Z,59.60
2019-02-27T02:02:01.104Z,58.90
2019-02-27T02:03:27.770Z,58.50
2019-02-27T02:04:53.885Z,58.40
2019-02-27T02:06:19.305Z,58.40
2019-02-27T02:07:47.638Z,58.50
2019-02-27T02:09:34.094Z,57.90
2019-02-27T02:11:01.376Z,58.10
2019-02-27T02:12:29.877Z,58.00
2019-02-27T02:14:28.555Z,57.90
2019-02-27T02:16:14.795Z,57.60
2019-02-27T02:18:22.288Z,57.40
2019-02-27T02:20:32.474Z,57.60
2019-02-27T02:22:45.851Z,57.50
2019-02-27T02:24:51.910Z,57.40
2019-02-27T02:26:59.527Z,57.70
2019-02-27T02:28:56.590Z,57.60
2019-02-27T02:30:51.690Z,57.30
2019-02-27T02:32:39.906Z,56.70
2019-02-27T02:34:41.021Z,57.00
2019-02-27T02:36:25.027Z,57.10
2019-02-27T02:38:26.037Z,56.60
2019-02-27T02:40:12.063Z,56.20
2019-02-27T02:42:14.398Z,56.40
2019-02-27T02:44:11.212Z,56.20
2019-02-27T02:46:08.512Z,55.80
2019-02-27T02:48:03.835Z,55.40
2019-02-27T02:49:55.802Z,55.00
2019-02-27T02:51:50.091Z,54.60
2019-02-27T02:53:35.173Z,54.80
2019-02-27T02:55:47.479Z,53.90
2019-02-27T02:58:01.493Z,54.20
2019-02-27T02:59:49.509Z,54.20
2019-02-27T03:01:41.697Z,54.40
2019-02-27T03:03:36.138Z,54.80
2019-02-27T03:05:43.897Z,54.80
2019-02-27T03:07:45.881Z,54.40
2019-02-27T03:09:18.973Z,54.60
2019-02-27T03:11:09.390Z,54.40
2019-02-27T03:13:06.003Z,54.20
2019-02-27T03:15:02.152Z,54.30
2019-02-27T03:16:59.932Z,54.10
2019-02-27T03:19:09.108Z,54.10
2019-02-27T03:20:44.346Z,53.70
2019-02-27T03:22:16.237Z,53.70
2019-02-27T03:24:46.576Z,53.80
2019-02-27T03:26:18.856Z,53.80
2019-02-27T03:28:24.555Z,53.50
2019-02-27T03:30:36.247Z,53.40
2019-02-27T03:32:07.674Z,53.80
2019-02-27T03:34:25.557Z,53.30
2019-02-27T03:36:26.843Z,52.80
2019-02-27T03:38:30.220Z,53.20
2019-02-27T03:40:30.705Z,53.20
2019-02-27T03:42:30.855Z,53.00
2019-02-27T03:44:24.617Z,53.20
2019-02-27T03:46:10.876Z,52.50
2019-02-27T03:47:55.747Z,53.00
2019-02-27T03:50:05.431Z,53.10
2019-02-27T03:52:06.796Z,53.30
2019-02-27T03:53:55.963Z,53.10
2019-02-27T03:55:43.598Z,53.00
2019-02-27T03:57:54.849Z,52.80
2019-02-27T04:00:09.540Z,53.00
2019-02-27T04:02:10.811Z,52.90
2019-02-27T04:04:10.857Z,52.60
2019-02-27T04:06:28.943Z,52.50
2019-02-27T04:08:47.156Z,52.50
2019-02-27T04:10:12.586Z,52.10
2019-02-27T04:11:41.563Z,51.40
2019-02-27T04:13:05.085Z,51.50
2019-02-27T04:14:40.424Z,51.80
2019-02-27T04:16:01.727Z,51.30
2019-02-27T04:17:28.931Z,51.30
2019-02-27T04:18:54.336Z,51.40
2019-02-27T04:20:19.770Z,51.30
2019-02-27T04:21:45.188Z,51.30
2019-02-27T04:23:12.439Z,51.40
2019-02-27T04:24:37.711Z,51.50
2019-02-27T04:26:05.790Z,51.20
2019-02-27T04:27:30.287Z,51.10
2019-02-27T04:28:55.730Z,51.10
2019-02-27T04:30:21.151Z,50.50
2019-02-27T04:31:46.620Z,50.20
2019-02-27T04:33:12.055Z,50.60
2019-02-27T04:34:37.532Z,51.10
2019-02-27T04:36:03.067Z,50.90
2019-02-27T04:37:28.475Z,51.00
2019-02-27T04:38:53.889Z,50.90
2019-02-27T04:40:19.351Z,50.90
2019-02-27T04:41:44.746Z,51.00
2019-02-27T04:43:10.259Z,51.30
2019-02-27T04:44:35.963Z,51.40
2019-02-27T04:46:02.756Z,51.10
2019-02-27T04:47:29.061Z,51.20
2019-02-27T04:48:55.251Z,51.20
2019-02-27T04:50:20.692Z,51.00
2019-02-27T04:51:48.000Z,51.10
2019-02-27T04:53:13.184Z,51.10
2019-02-27T04:54:41.270Z,51.20
2019-02-27T04:56:05.700Z,51.10
2019-02-27T04:57:33.712Z,51.30
2019-02-27T04:59:00.475Z,51.30
2019-02-27T05:00:26.231Z,51.20
2019-02-27T05:01:52.290Z,51.30
2019-02-27T05:03:17.755Z,51.20
2019-02-27T05:04:44.535Z,51.30
2019-02-27T05:06:24.551Z,51.30
2019-02-27T05:07:54.286Z,51.30
2019-02-27T05:09:20.597Z,51.20
2019-02-27T05:10:46.134Z,51.30
2019-02-27T05:12:11.575Z,50.60
2019-02-27T05:13:37.015Z,51.60
2019-02-27T05:15:04.253Z,50.60
2019-02-27T05:16:29.540Z,50.50
2019-02-27T05:17:55.751Z,50.60
2019-02-27T05:19:21.750Z,50.20
2019-02-27T05:20:47.205Z,50.20
2019-02-27T05:22:12.619Z,50.30
2019-02-27T05:23:38.075Z,50.50
2019-02-27T05:25:03.533Z,50.60
2019-02-27T05:26:28.974Z,50.60
2019-02-27T05:27:54.406Z,51.00
2019-02-27T05:29:19.890Z,51.10
2019-02-27T05:30:45.915Z,51.50
2019-02-27T05:32:11.399Z,52.10
2019-02-27T05:33:39.719Z,52.50
2019-02-27T05:35:04.192Z,52.90
2019-02-27T05:36:31.744Z,53.30
2019-02-27T05:37:56.766Z,53.40
2019-02-27T05:39:22.241Z,53.40
2019-02-27T05:40:47.812Z,53.50
2019-02-27T05:42:13.273Z,53.70
2019-02-27T05:43:38.712Z,53.90
2019-02-27T05:45:04.345Z,54.20
2019-02-27T05:46:29.793Z,54.60
2019-02-27T05:47:55.211Z,54.90
2019-02-27T05:49:20.638Z,55.20
2019-02-27T05:50:46.065Z,55.50
2019-02-27T05:52:11.871Z,55.70
2019-02-27T05:53:38.547Z,55.70
2019-02-27T05:55:06.525Z,55.60
2019-02-27T05:56:31.163Z,55.60
2019-02-27T05:57:56.625Z,55.60
2019-02-27T05:59:22.074Z,55.70
2019-02-27T06:00:47.576Z,55.90
2019-02-27T06:02:13.033Z,55.90
2019-02-27T06:03:38.558Z,55.80
2019-02-27T06:05:04.055Z,55.90
2019-02-27T06:06:29.483Z,56.00
2019-02-27T06:07:55.146Z,56.20
2019-02-27T06:09:20.581Z,56.20
2019-02-27T06:10:46.000Z,56.20
2019-02-27T06:12:11.451Z,56.30
2019-02-27T06:13:36.895Z,56.20
2019-02-27T06:15:02.411Z,56.20
2019-02-27T06:16:27.809Z,56.00
2019-02-27T06:17:53.255Z,56.10
2019-02-27T06:19:18.698Z,56.10
2019-02-27T06:20:44.170Z,56.30
2019-02-27T06:22:09.630Z,56.40
2019-02-27T06:23:35.320Z,56.40
2019-02-27T06:25:02.182Z,56.10
2019-02-27T06:26:32.173Z,56.10
2019-02-27T06:27:54.695Z,55.90
2019-02-27T06:29:23.379Z,55.90
2019-02-27T06:30:47.227Z,55.50
2019-02-27T06:32:12.940Z,55.50
2019-02-27T06:33:38.362Z,55.40
2019-02-27T06:35:03.922Z,55.30
2019-02-27T06:36:29.444Z,55.00
2019-02-27T06:37:54.845Z,55.00
2019-02-27T06:39:20.278Z,54.90
2019-02-27T06:40:45.755Z,54.90
2019-02-27T06:42:11.213Z,54.70
2019-02-27T06:43:36.704Z,54.70
2019-02-27T06:45:02.163Z,54.80
2019-02-27T06:46:27.618Z,54.90
2019-02-27T06:47:53.022Z,55.00
2019-02-27T06:49:18.458Z,55.10
2019-02-27T06:50:43.901Z,55.30
2019-02-27T06:52:09.869Z,55.50
2019-02-27T06:53:35.394Z,55.80
2019-02-27T06:55:00.942Z,56.10
2019-02-27T06:56:26.426Z,56.30
2019-02-27T06:57:51.873Z,56.60
2019-02-27T06:59:18.055Z,56.80
2019-02-27T07:00:43.766Z,57.20
2019-02-27T07:02:09.189Z,57.40
2019-02-27T07:03:34.664Z,57.60
2019-02-27T07:05:00.293Z,57.90
2019-02-27T07:06:25.771Z,58.10
2019-02-27T07:07:51.370Z,58.30
2019-02-27T07:09:16.803Z,58.40
2019-02-27T07:10:42.247Z,58.40
2019-02-27T07:12:07.774Z,58.80
2019-02-27T07:13:33.153Z,59.10
2019-02-27T07:14:58.729Z,59.50
2019-02-27T07:16:24.245Z,59.50
2019-02-27T07:17:49.825Z,59.60
2019-02-27T07:19:15.758Z,59.60
2019-02-27T07:20:41.876Z,59.80
2019-02-27T07:22:09.203Z,60.00
2019-02-27T07:23:35.303Z,60.20
2019-02-27T07:25:00.812Z,60.20
2019-02-27T07:26:26.418Z,60.20
2019-02-27T07:27:51.882Z,59.90
2019-02-27T07:29:21.658Z,59.30
2019-02-27T07:30:44.390Z,58.70
2019-02-27T07:32:09.859Z,58.00
2019-02-27T07:33:35.242Z,57.70
2019-02-27T07:35:00.713Z,57.60
2019-02-27T07:36:26.300Z,57.60
2019-02-27T07:37:51.839Z,57.90
2019-02-27T07:39:17.217Z,58.00
2019-02-27T07:40:43.524Z,58.10
2019-02-27T07:42:09.072Z,58.00
2019-02-27T07:43:34.952Z,57.80
2019-02-27T07:45:00.349Z,57.50
2019-02-27T07:46:25.764Z,57.50
2019-02-27T07:47:51.321Z,57.30
2019-02-27T07:49:16.764Z,57.30
2019-02-27T07:50:42.230Z,57.40
2019-02-27T07:52:07.666Z,57.30
2019-02-27T07:53:33.149Z,57.00
2019-02-27T07:54:58.631Z,56.80
2019-02-27T07:56:24.066Z,56.50
2019-02-27T07:57:49.555Z,56.10
2019-02-27T07:59:14.982Z,55.70
2019-02-27T08:00:42.714Z,55.70
2019-02-27T08:02:07.584Z,55.90
2019-02-27T08:03:33.037Z,56.00
2019-02-27T08:04:58.488Z,56.00
2019-02-27T08:06:24.036Z,55.90
2019-02-27T08:07:49.951Z,55.90
2019-02-27T08:09:15.542Z,55.80
2019-02-27T08:10:41.077Z,55.90
2019-02-27T08:12:06.685Z,55.90
2019-02-27T08:13:32.123Z,55.90
2019-02-27T08:14:57.615Z,56.10
2019-02-27T08:16:23.066Z,56.20
2019-02-27T08:17:48.951Z,56.10
2019-02-27T08:19:14.322Z,55.80
2019-02-27T08:20:39.778Z,55.70
2019-02-27T08:22:05.327Z,55.40
2019-02-27T08:23:30.783Z,55.50
2019-02-27T08:24:56.210Z,55.50
2019-02-27T08:26:21.621Z,55.30
2019-02-27T08:27:47.302Z,55.00
2019-02-27T08:29:12.767Z,54.80
2019-02-27T08:30:38.687Z,54.70
2019-02-27T08:32:05.504Z,54.50
2019-02-27T08:33:31.199Z,54.40
2019-02-27T08:34:56.642Z,54.20
2019-02-27T08:36:22.090Z,54.10
2019-02-27T08:37:47.754Z,54.10
2019-02-27T08:39:13.280Z,54.00
2019-02-27T08:40:38.785Z,53.90
2019-02-27T08:42:07.210Z,53.80
2019-02-27T08:43:32.696Z,54.00
2019-02-27T08:44:58.377Z,53.70
2019-02-27T08:46:23.823Z,53.60
2019-02-27T08:47:49.979Z,53.50
2019-02-27T08:49:15.455Z,53.70
2019-02-27T08:50:40.909Z,54.10
2019-02-27T08:52:08.373Z,54.20
2019-02-27T08:53:34.535Z,54.50
2019-02-27T08:55:05.606Z,54.90
2019-02-27T08:56:31.044Z,56.00
2019-02-27T08:57:57.171Z,55.40
2019-02-27T08:59:22.683Z,55.60
2019-02-27T09:00:48.635Z,55.80
2019-02-27T09:02:15.091Z,55.70
2019-02-27T09:03:40.624Z,55.90
2019-02-27T09:05:06.522Z,55.50
2019-02-27T09:06:32.481Z,55.50
2019-02-27T09:07:57.903Z,55.30
2019-02-27T09:09:23.398Z,55.10
2019-02-27T09:10:48.879Z,54.80
2019-02-27T09:12:14.458Z,54.80
2019-02-27T09:13:41.574Z,54.80
2019-02-27T09:15:08.762Z,54.70
2019-02-27T09:16:34.376Z,54.70
2019-02-27T09:18:01.782Z,54.90
2019-02-27T09:19:32.013Z,55.10
2019-02-27T09:20:58.455Z,55.10
2019-02-27T09:22:24.327Z,55.10
2019-02-27T09:23:49.785Z,55.10
2019-02-27T09:25:15.684Z,55.00
2019-02-27T09:26:42.341Z,55.30
2019-02-27T09:28:09.261Z,55.60
2019-02-27T09:29:35.023Z,55.80
2019-02-27T09:31:04.244Z,56.60
2019-02-27T09:32:28.132Z,57.20
2019-02-27T09:33:53.995Z,57.30
2019-02-27T09:35:19.481Z,57.80
2019-02-27T09:36:44.916Z,58.60
2019-02-27T09:38:10.393Z,58.70
2019-02-27T09:39:36.022Z,59.00
2019-02-27T09:41:01.483Z,59.50
2019-02-27T09:42:26.962Z,59.90
2019-02-27T09:43:52.476Z,60.10
2019-02-27T09:45:21.265Z,60.50
2019-02-27T09:46:46.669Z,60.70
2019-02-27T09:48:12.105Z,59.90
2019-02-27T09:49:37.959Z,59.50
2019-02-27T09:51:05.004Z,59.00
2019-02-27T09:52:30.831Z,59.00
2019-02-27T09:53:56.359Z,58.70
2019-02-27T09:55:21.893Z,59.10
2019-02-27T09:56:47.338Z,59.30
2019-02-27T09:58:13.146Z,59.30
2019-02-27T09:59:39.993Z,59.50
2019-02-27T10:01:16.453Z,59.60
2019-02-27T10:02:43.149Z,59.70
2019-02-27T10:04:09.673Z,60.20
2019-02-27T10:05:36.743Z,59.70
2019-02-27T10:07:02.664Z,60.00
2019-02-27T10:08:28.200Z,60.30
2019-02-27T10:09:53.658Z,60.40
2019-02-27T10:11:22.118Z,60.10
2019-02-27T10:12:46.234Z,60.20
2019-02-27T10:14:14.147Z,60.40
2019-02-27T10:15:38.846Z,60.50
2019-02-27T10:17:06.808Z,60.60
2019-02-27T10:18:31.492Z,60.70
2019-02-27T10:20:01.408Z,61.00
2019-02-27T10:21:24.078Z,61.00
2019-02-27T10:22:49.590Z,60.90
2019-02-27T10:24:15.079Z,60.50
2019-02-27T10:25:43.274Z,60.30
2019-02-27T10:27:07.619Z,60.20
2019-02-27T10:28:35.809Z,60.20
2019-02-27T10:30:00.222Z,60.40
2019-02-27T10:31:26.220Z,60.00
2019-02-27T10:32:52.396Z,60.60
2019-02-27T10:34:18.315Z,60.90
2019-02-27T10:35:43.759Z,61.00
2019-02-27T10:37:12.849Z,61.70
2019-02-27T10:38:40.252Z,61.50
2019-02-27T10:40:03.491Z,61.80
2019-02-27T10:41:32.113Z,62.80
2019-02-27T10:43:09.060Z,63.00
2019-02-27T10:44:33.799Z,63.40
2019-02-27T10:46:00.400Z,63.90
2019-02-27T10:47:26.480Z,64.40
2019-02-27T10:48:51.966Z,64.40
2019-02-27T10:50:17.519Z,64.60
2019-02-27T10:51:43.770Z,65.30
2019-02-27T10:53:09.800Z,65.50
2019-02-27T10:54:37.033Z,65.80
2019-02-27T10:56:02.678Z,66.10
2019-02-27T10:57:31.490Z,65.70
2019-02-27T10:58:55.426Z,66.10
2019-02-27T11:00:27.820Z,65.90
2019-02-27T11:01:53.365Z,65.80
2019-02-27T11:03:19.203Z,65.80
2019-02-27T11:04:45.690Z,65.80
2019-02-27T11:06:13.544Z,65.80
2019-02-27T11:07:39.357Z,65.90
2019-02-27T11:09:06.849Z,65.80
2019-02-27T11:10:32.610Z,66.20
2019-02-27T11:11:58.575Z,66.30
2019-02-27T11:13:24.164Z,66.60
2019-02-27T11:14:53.144Z,66.90
2019-02-27T11:16:21.237Z,67.00
2019-02-27T11:17:45.865Z,67.40
2019-02-27T11:19:14.104Z,67.70
2019-02-27T11:20:38.615Z,67.70
2019-02-27T11:22:04.142Z,68.30
2019-02-27T11:23:29.610Z,68.60
2019-02-27T11:24:55.355Z,69.10
2019-02-27T11:26:21.713Z,69.50
2019-02-27T11:27:47.763Z,69.50
2019-02-27T11:29:17.612Z,69.00
2019-02-27T11:30:51.136Z,69.50
2019-02-27T11:32:16.816Z,69.70
2019-02-27T11:33:46.336Z,70.00
2019-02-27T11:35:12.104Z,70.30
2019-02-27T11:36:39.673Z,71.00
2019-02-27T11:38:08.571Z,70.90
2019-02-27T11:39:34.092Z,71.30
2019-02-27T11:41:00.751Z,70.40
2019-02-27T11:42:28.965Z,70.60
2019-02-27T11:43:56.972Z,70.70
2019-02-27T11:45:25.423Z,70.90
2019-02-27T11:46:58.702Z,71.20
2019-02-27T11:48:20.361Z,71.00
2019-02-27T11:49:45.763Z,71.30
2019-02-27T11:51:11.328Z,71.70
2019-02-27T11:52:48.773Z,71.60
2019-02-27T11:54:15.810Z,71.70
2019-02-27T11:55:41.390Z,71.70
2019-02-27T11:57:08.875Z,71.90
2019-02-27T11:58:35.227Z,71.40
2019-02-27T12:00:01.403Z,70.90
2019-02-27T12:01:27.410Z,70.80
2019-02-27T12:02:52.987Z,70.70
2019-02-27T12:04:19.563Z,71.10
2019-02-27T12:05:45.805Z,71.90
2019-02-27T12:07:17.231Z,71.80
2019-02-27T12:08:40.871Z,71.40
2019-02-27T12:10:08.952Z,71.60
2019-02-27T12:11:34.972Z,71.40
2019-02-27T12:13:01.314Z,71.10
2019-02-27T12:14:27.491Z,70.50
2019-02-27T12:15:53.166Z,70.80
2019-02-27T12:17:19.075Z,71.20
2019-02-27T12:18:44.831Z,71.90
2019-02-27T12:20:11.219Z,71.80
2019-02-27T12:21:36.654Z,71.70
2019-02-27T12:23:02.633Z,72.20
2019-02-27T12:24:28.503Z,72.80
2019-02-27T12:25:53.978Z,73.10
2019-02-27T12:27:37.798Z,73.50
2019-02-27T12:28:47.621Z,73.40
2019-02-27T12:30:18.817Z,73.60
2019-02-27T12:31:47.899Z,73.80
2019-02-27T12:33:11.829Z,73.50
2019-02-27T12:34:37.807Z,73.30
2019-02-27T12:36:03.442Z,73.40
2019-02-27T12:37:34.065Z,73.00
2019-02-27T12:38:55.942Z,73.00
2019-02-27T12:40:25.015Z,73.70
2019-02-27T12:41:55.762Z,73.50
2019-02-27T12:43:21.554Z,73.80
2019-02-27T12:44:46.961Z,74.50
2019-02-27T12:46:16.088Z,74.80
2019-02-27T12:47:44.650Z,74.90
2019-02-27T12:49:12.352Z,75.10
2019-02-27T12:50:37.846Z,75.00
2019-02-27T12:52:03.298Z,75.00
2019-02-27T12:53:28.967Z,75.10
2019-02-27T12:54:54.353Z,75.00
2019-02-27T12:56:19.828Z,74.80
2019-02-27T12:57:45.394Z,74.70
2019-02-27T12:59:11.116Z,74.70
2019-02-27T13:00:37.054Z,74.50
2019-02-27T13:02:08.355Z,74.20
2019-02-27T13:03:29.737Z,74.70
2019-02-27T13:04:55.141Z,75.30
2019-02-27T13:06:20.811Z,75.50
2019-02-27T13:07:46.507Z,75.70
2019-02-27T13:09:14.292Z,76.00
2019-02-27T13:10:40.039Z,76.50
2019-02-27T13:12:05.502Z,76.40
2019-02-27T13:13:31.036Z,76.00
2019-02-27T13:14:56.570Z,76.20
2019-02-27T13:16:22.091Z,76.20
2019-02-27T13:17:47.622Z,75.30
2019-02-27T13:19:13.055Z,75.20
2019-02-27T13:20:38.598Z,74.60
2019-02-27T13:22:07.241Z,74.50
2019-02-27T13:23:32.802Z,74.10
2019-02-27T13:24:58.235Z,73.80
2019-02-27T13:26:25.350Z,74.50
2019-02-27T13:27:50.787Z,74.10
2019-02-27T13:29:16.212Z,75.10
2019-02-27T13:30:42.176Z,75.50
2019-02-27T13:32:07.739Z,75.70
2019-02-27T13:33:35.818Z,75.70
2019-02-27T13:35:00.446Z,76.00
2019-02-27T13:36:25.888Z,77.00
2019-02-27T13:37:51.398Z,77.70
2019-02-27T13:39:16.867Z,78.00
2019-02-27T13:40:42.422Z,78.50
2019-02-27T13:42:07.945Z,77.90
2019-02-27T13:43:33.666Z,77.90
2019-02-27T13:44:59.087Z,78.10
2019-02-27T13:46:24.583Z,78.10
2019-02-27T13:47:50.262Z,78.20
2019-02-27T13:49:15.792Z,78.20
2019-02-27T13:50:42.665Z,78.30
2019-02-27T13:52:12.327Z,78.70
2019-02-27T13:53:35.191Z,78.60
2019-02-27T13:55:02.047Z,78.00
2019-02-27T13:56:28.130Z,77.50
2019-02-27T13:57:59.273Z,77.70
2019-02-27T13:59:23.954Z,77.40
2019-02-27T14:00:53.513Z,77.30
2019-02-27T14:02:16.940Z,77.10
2019-02-27T14:03:45.641Z,76.90
2019-02-27T14:05:10.176Z,76.70
2019-02-27T14:06:42.954Z,76.90
2019-02-27T14:08:06.178Z,77.20
2019-02-27T14:09:31.815Z,76.80
2019-02-27T14:10:57.625Z,77.20
2019-02-27T14:12:23.045Z,77.60
2019-02-27T14:13:50.086Z,76.60
2019-02-27T14:15:15.996Z,76.50
2019-02-27T14:16:44.472Z,76.70
2019-02-27T14:18:13.363Z,76.80
2019-02-27T14:19:38.334Z,76.70
2019-02-27T14:21:06.515Z,77.10
2019-02-27T14:22:41.942Z,77.30
2019-02-27T14:24:09.632Z,76.40
2019-02-27T14:25:35.455Z,76.20
2019-02-27T14:27:00.958Z,76.20
2019-02-27T14:28:26.442Z,76.50
2019-02-27T14:29:52.009Z,76.80
2019-02-27T14:31:17.461Z,77.70
2019-02-27T14:32:45.044Z,79.00
2019-02-27T14:34:09.963Z,79.40
2019-02-27T14:35:36.445Z,79.90
2019-02-27T14:37:02.119Z,80.20
2019-02-27T14:38:29.245Z,80.30
2019-02-27T14:39:54.807Z,80.50
2019-02-27T14:41:23.087Z,80.90
2019-02-27T14:42:53.821Z,80.90
2019-02-27T14:44:16.767Z,81.10
2019-02-27T14:45:42.655Z,81.40
2019-02-27T14:47:08.177Z,80.70
2019-02-27T14:48:33.650Z,81.40
2019-02-27T14:50:00.159Z,82.00
2019-02-27T14:51:26.025Z,82.20
2019-02-27T14:52:51.975Z,82.80
2019-02-27T14:54:17.494Z,83.00
2019-02-27T14:55:43.139Z,83.10
2019-02-27T14:57:08.682Z,83.30
2019-02-27T14:58:34.122Z,83.90
2019-02-27T15:00:02.315Z,84.20
2019-02-27T15:01:28.972Z,83.80
2019-02-27T15:02:55.646Z,83.90
2019-02-27T15:04:21.640Z,84.10
2019-02-27T15:05:48.262Z,84.50
2019-02-27T15:07:13.778Z,84.20
2019-02-27T15:08:39.323Z,84.30
2019-02-27T15:10:07.264Z,84.90
2019-02-27T15:11:32.234Z,84.80
2019-02-27T15:12:57.778Z,84.60
2019-02-27T15:14:24.446Z,84.50
2019-02-27T15:15:50.003Z,84.80
2019-02-27T15:17:15.466Z,85.40
2019-02-27T15:18:40.950Z,84.90
2019-02-27T15:20:06.856Z,85.20
2019-02-27T15:21:32.688Z,85.40
2019-02-27T15:22:58.496Z,85.80
2019-02-27T15:24:23.954Z,86.10
2019-02-27T15:25:49.491Z,86.50
2019-02-27T15:27:14.945Z,86.70
2019-02-27T15:28:41.712Z,86.80
2019-02-27T15:30:08.145Z,87.00
2019-02-27T15:31:33.672Z,86.70
2019-02-27T15:33:03.824Z,87.00
2019-02-27T15:34:27.245Z,86.90
2019-02-27T15:35:55.289Z,86.80
2019-02-27T15:37:19.794Z,86.50
2019-02-27T15:38:46.025Z,86.30
2019-02-27T15:40:14.276Z,86.00
2019-02-27T15:41:39.912Z,86.40
2019-02-27T15:43:11.335Z,86.60
2019-02-27T15:44:34.521Z,87.20
2019-02-27T15:45:59.681Z,87.50
2019-02-27T15:47:27.006Z,87.50
2019-02-27T15:48:52.244Z,87.30
2019-02-27T15:50:22.558Z,87.30
2019-02-27T15:51:46.180Z,87.60
2019-02-27T15:53:14.522Z,87.50
2019-02-27T15:54:39.406Z,87.50
2019-02-27T15:56:05.419Z,87.10
2019-02-27T15:57:32.381Z,87.10
2019-02-27T15:58:59.372Z,87.30
2019-02-27T16:00:25.269Z,87.40
2019-02-27T16:01:54.147Z,87.60
2019-02-27T16:03:19.593Z,88.00
2019-02-27T16:04:45.106Z,88.40
2019-02-27T16:06:16.012Z,88.50
2019-02-27T16:07:51.866Z,88.60
2019-02-27T16:09:17.430Z,88.60
2019-02-27T16:10:54.928Z,88.50
2019-02-27T16:12:25.945Z,88.60
2019-02-27T16:13:52.160Z,89.00
2019-02-27T16:15:18.090Z,89.20
2019-02-27T16:16:43.927Z,89.50
2019-02-27T16:18:09.352Z,90.00
2019-02-27T16:19:34.775Z,89.90
2019-02-27T16:21:00.399Z,90.10
2019-02-27T16:22:28.460Z,90.40
2019-02-27T16:23:53.226Z,90.70
2019-02-27T16:25:20.233Z,90.80
2019-02-27T16:26:47.657Z,90.60
2019-02-27T16:28:16.416Z,90.20
2019-02-27T16:29:40.197Z,90.10
2019-02-27T16:31:06.251Z,90.20
2019-02-27T16:32:32.843Z,90.20
2019-02-27T16:33:58.539Z,90.30
2019-02-27T16:35:24.973Z,90.50
2019-02-27T16:36:50.841Z,90.40
2019-02-27T16:38:16.225Z,90.00
2019-02-27T16:39:45.491Z,89.20
2019-02-27T16:41:08.970Z,88.20
2019-02-27T16:42:36.417Z,88.00
2019-02-27T16:44:01.540Z,86.70
2019-02-27T16:45:32.343Z,85.50
2019-02-27T16:46:55.766Z,84.80
2019-02-27T16:48:21.224Z,83.50
2019-02-27T16:49:50.567Z,82.70
2019-02-27T16:51:14.394Z,82.00
2019-02-27T16:52:42.045Z,81.50
2019-02-27T16:54:06.920Z,81.30
2019-02-27T16:55:35.998Z,81.00
2019-02-27T16:56:59.415Z,80.30
2019-02-27T16:58:24.865Z,80.10
2019-02-27T16:59:50.307Z,80.30
2019-02-27T17:01:15.943Z,80.00
2019-02-27T17:02:41.426Z,80.80
2019-02-27T17:04:06.993Z,81.20
2019-02-27T17:05:32.486Z,80.40
2019-02-27T17:06:58.000Z,80.40
2019-02-27T17:08:23.446Z,79.40
2019-02-27T17:09:49.064Z,78.30
2019-02-27T17:11:14.502Z,76.60
2019-02-27T17:12:40.887Z,75.70
2019-02-27T17:14:06.987Z,75.10
2019-02-27T17:15:35.964Z,75.20
2019-02-27T17:16:59.740Z,75.40
2019-02-27T17:18:28.424Z,75.50
2019-02-27T17:19:53.027Z,75.40
2019-02-27T17:21:22.121Z,75.30
2019-02-27T17:22:46.012Z,75.30
2019-02-27T17:24:11.829Z,75.70
2019-02-27T17:25:37.295Z,76.00
2019-02-27T17:27:02.830Z,76.20
2019-02-27T17:28:28.243Z,76.40
2019-02-27T17:29:59.778Z,76.60
2019-02-27T17:31:22.272Z,76.80
2019-02-27T17:32:51.200Z,77.00
2019-02-27T17:34:16.818Z,77.20
2019-02-27T17:35:42.416Z,77.30
2019-02-27T17:37:08.555Z,77.50
2019-02-27T17:38:34.186Z,77.80
2019-02-27T17:40:02.236Z,78.10
2019-02-27T17:41:29.472Z,78.40
2019-02-27T17:42:55.435Z,78.50
2019-02-27T17:44:20.918Z,78.70
2019-02-27T17:45:47.552Z,78.90
2019-02-27T17:47:13.755Z,79.10
2019-02-27T17:48:39.492Z,79.20
2019-02-27T17:50:05.533Z,79.30
2019-02-27T17:51:31.295Z,79.50
2019-02-27T17:52:57.160Z,79.60
2019-02-27T17:54:23.108Z,79.70
2019-02-27T17:55:51.486Z,79.80
2019-02-27T17:57:17.026Z,79.90
2019-02-27T17:58:43.234Z,80.00
2019-02-27T18:00:12.920Z,80.20
2019-02-27T18:01:39.735Z,80.10
2019-02-27T18:03:07.258Z,80.10
2019-02-27T18:04:32.701Z,80.20
2019-02-27T18:06:00.230Z,80.30
2019-02-27T18:07:34.071Z,80.30
2019-02-27T18:08:52.956Z,80.40
2019-02-27T18:10:18.538Z,80.40
2019-02-27T18:11:45.272Z,80.50
2019-02-27T18:13:11.079Z,80.90
2019-02-27T18:14:37.715Z,80.90
2019-02-27T18:16:03.440Z,81.00
2019-02-27T18:17:29.231Z,81.10
2019-02-27T18:18:56.050Z,81.10
2019-02-27T18:20:25.609Z,81.10
2019-02-27T18:21:49.782Z,81.20
2019-02-27T18:23:15.190Z,81.20
2019-02-27T18:24:43.424Z,81.20
2019-02-27T18:26:08.830Z,81.30
2019-02-27T18:27:34.469Z,81.20
2019-02-27T18:29:07.565Z,81.30
2019-02-27T18:30:37.122Z,81.40
2019-02-27T18:32:07.776Z,81.60
2019-02-27T18:33:43.195Z,81.60
2019-02-27T18:35:09.020Z,81.70
2019-02-27T18:36:42.588Z,81.70
2019-02-27T18:38:01.708Z,81.60
2019-02-27T18:39:27.353Z,81.50
2019-02-27T18:40:52.872Z,81.30
2019-02-27T18:43:17.177Z,81.30
2019-02-27T18:45:17.890Z,81.20
2019-02-27T18:46:45.067Z,81.20
2019-02-27T18:48:11.591Z,81.00
2019-02-27T18:49:37.065Z,80.90
2019-02-27T18:51:02.576Z,80.90
2019-02-27T18:52:28.015Z,80.90
2019-02-27T18:53:53.453Z,80.90
2019-02-27T18:55:19.257Z,81.00
2019-02-27T18:56:50.581Z,80.90
2019-02-27T18:58:20.905Z,81.00
2019-02-27T18:59:53.146Z,81.00
2019-02-27T19:01:19.049Z,81.10
2019-02-27T19:02:52.349Z,81.10
2019-02-27T19:04:20.579Z,81.30